sensor_id;sensor_type;location;lat;lon;timestamp;pressure;altitude;pressure_sealevel;temperature;humidity
45040;BME280;30778;53.574;7.770;2023-04-05T00:00:10;102598.94;;;-0.56;45.83
45040;BME280;30778;53.574;7.770;2023-04-05T00:02:36;102599.56;;;-0.63;45.99
45040;BME280;30778;53.574;7.770;2023-04-05T00:05:06;102599.34;;;-0.69;45.88
45040;BME280;30778;53.574;7.770;2023-04-05T00:07:31;102597.59;;;-0.70;45.99
45040;BME280;30778;53.574;7.770;2023-04-05T00:10:00;102604.78;;;-0.60;45.84
45040;BME280;30778;53.574;7.770;2023-04-05T00:12:25;102603.50;;;-0.72;46.02
45040;BME280;30778;53.574;7.770;2023-04-05T00:14:51;102592.09;;;-0.81;46.07
45040;BME280;30778;53.574;7.770;2023-04-05T00:17:16;102593.47;;;-0.90;46.26
45040;BME280;30778;53.574;7.770;2023-04-05T00:19:42;102585.09;;;-0.85;46.34
45040;BME280;30778;53.574;7.770;2023-04-05T00:22:09;102591.16;;;-0.83;46.42
45040;BME280;30778;53.574;7.770;2023-04-05T00:24:36;102584.59;;;-0.74;45.89
45040;BME280;30778;53.574;7.770;2023-04-05T00:27:03;102583.47;;;-0.83;46.08
45040;BME280;30778;53.574;7.770;2023-04-05T00:29:29;102582.53;;;-0.85;46.50
45040;BME280;30778;53.574;7.770;2023-04-05T00:31:55;102586.25;;;-0.77;46.40
45040;BME280;30778;53.574;7.770;2023-04-05T00:34:20;102582.63;;;-0.82;46.22
45040;BME280;30778;53.574;7.770;2023-04-05T00:36:46;102592.16;;;-0.79;46.13
45040;BME280;30778;53.574;7.770;2023-04-05T00:39:11;102583.94;;;-0.93;46.38
45040;BME280;30778;53.574;7.770;2023-04-05T00:41:37;102580.13;;;-1.04;46.35
45040;BME280;30778;53.574;7.770;2023-04-05T00:44:04;102582.75;;;-1.03;46.61
45040;BME280;30778;53.574;7.770;2023-04-05T00:46:34;102576.75;;;-1.03;46.65
45040;BME280;30778;53.574;7.770;2023-04-05T00:49:02;102578.47;;;-1.02;46.85
45040;BME280;30778;53.574;7.770;2023-04-05T00:51:29;102575.50;;;-1.13;47.21
45040;BME280;30778;53.574;7.770;2023-04-05T00:53:55;102577.31;;;-1.10;47.13
45040;BME280;30778;53.574;7.770;2023-04-05T00:56:21;102573.75;;;-1.14;47.25
45040;BME280;30778;53.574;7.770;2023-04-05T00:58:48;102567.16;;;-1.07;47.05
45040;BME280;30778;53.574;7.770;2023-04-05T01:01:18;102575.63;;;-1.10;47.08
45040;BME280;30778;53.574;7.770;2023-04-05T01:03:59;102576.50;;;-1.09;47.20
45040;BME280;30778;53.574;7.770;2023-04-05T01:09:12;102573.84;;;-1.12;47.17
45040;BME280;30778;53.574;7.770;2023-04-05T01:11:39;102572.84;;;-1.16;47.29
45040;BME280;30778;53.574;7.770;2023-04-05T01:14:06;102575.63;;;-1.10;47.10
45040;BME280;30778;53.574;7.770;2023-04-05T01:16:32;102578.19;;;-1.10;47.19
45040;BME280;30778;53.574;7.770;2023-04-05T01:18:58;102576.81;;;-1.24;47.17
45040;BME280;30778;53.574;7.770;2023-04-05T01:24:19;102570.97;;;-1.20;47.29
45040;BME280;30778;53.574;7.770;2023-04-05T01:27:20;102565.03;;;-1.19;47.08
45040;BME280;30778;53.574;7.770;2023-04-05T01:32:41;102568.22;;;-1.26;47.28
45040;BME280;30778;53.574;7.770;2023-04-05T01:35:21;102569.84;;;-1.28;47.22
45040;BME280;30778;53.574;7.770;2023-04-05T01:37:56;102569.94;;;-1.25;47.10
45040;BME280;30778;53.574;7.770;2023-04-05T01:40:24;102562.84;;;-1.32;47.22
45040;BME280;30778;53.574;7.770;2023-04-05T01:42:50;102564.25;;;-1.41;47.35
45040;BME280;30778;53.574;7.770;2023-04-05T01:45:15;102560.44;;;-1.28;47.08
45040;BME280;30778;53.574;7.770;2023-04-05T01:47:41;102558.03;;;-1.23;47.28
45040;BME280;30778;53.574;7.770;2023-04-05T01:50:07;102552.59;;;-1.32;47.21
45040;BME280;30778;53.574;7.770;2023-04-05T01:52:33;102549.31;;;-1.28;47.20
45040;BME280;30778;53.574;7.770;2023-04-05T01:54:58;102557.72;;;-1.32;47.41
45040;BME280;30778;53.574;7.770;2023-04-05T01:57:24;102560.50;;;-1.26;47.24
45040;BME280;30778;53.574;7.770;2023-04-05T01:59:49;102548.56;;;-1.26;47.24
45040;BME280;30778;53.574;7.770;2023-04-05T02:02:15;102544.88;;;-1.32;47.36
45040;BME280;30778;53.574;7.770;2023-04-05T02:04:40;102537.06;;;-1.35;47.28
45040;BME280;30778;53.574;7.770;2023-04-05T02:07:08;102545.50;;;-1.40;47.30
45040;BME280;30778;53.574;7.770;2023-04-05T02:09:33;102547.13;;;-1.42;47.45
45040;BME280;30778;53.574;7.770;2023-04-05T02:11:59;102540.38;;;-1.40;47.87
45040;BME280;30778;53.574;7.770;2023-04-05T02:14:25;102542.19;;;-1.35;48.01
45040;BME280;30778;53.574;7.770;2023-04-05T02:16:51;102536.59;;;-1.25;47.76
45040;BME280;30778;53.574;7.770;2023-04-05T02:19:21;102539.91;;;-1.28;47.45
45040;BME280;30778;53.574;7.770;2023-04-05T02:21:50;102537.84;;;-1.38;47.68
45040;BME280;30778;53.574;7.770;2023-04-05T02:24:18;102533.25;;;-1.47;47.82
45040;BME280;30778;53.574;7.770;2023-04-05T02:26:43;102533.25;;;-1.47;47.67
45040;BME280;30778;53.574;7.770;2023-04-05T02:29:09;102529.81;;;-1.47;47.74
45040;BME280;30778;53.574;7.770;2023-04-05T02:31:35;102529.63;;;-1.52;48.02
45040;BME280;30778;53.574;7.770;2023-04-05T02:34:01;102536.41;;;-1.54;47.95
45040;BME280;30778;53.574;7.770;2023-04-05T02:36:26;102539.91;;;-1.52;47.78
45040;BME280;30778;53.574;7.770;2023-04-05T02:38:54;102538.91;;;-1.55;47.75
45040;BME280;30778;53.574;7.770;2023-04-05T02:41:20;102544.75;;;-1.60;48.05
45040;BME280;30778;53.574;7.770;2023-04-05T02:43:48;102535.28;;;-1.61;48.00
45040;BME280;30778;53.574;7.770;2023-04-05T02:46:14;102541.28;;;-1.60;47.80
45040;BME280;30778;53.574;7.770;2023-04-05T02:48:41;102535.38;;;-1.59;47.85
45040;BME280;30778;53.574;7.770;2023-04-05T02:51:09;102533.66;;;-1.59;48.09
45040;BME280;30778;53.574;7.770;2023-04-05T02:53:34;102534.09;;;-1.70;47.80
45040;BME280;30778;53.574;7.770;2023-04-05T02:56:04;102534.44;;;-1.61;47.79
45040;BME280;30778;53.574;7.770;2023-04-05T02:58:32;102525.47;;;-1.72;48.13
45040;BME280;30778;53.574;7.770;2023-04-05T03:00:59;102523.06;;;-1.68;48.40
45040;BME280;30778;53.574;7.770;2023-04-05T03:03:30;102517.84;;;-1.71;47.68
45040;BME280;30778;53.574;7.770;2023-04-05T03:06:00;102525.22;;;-1.78;48.25
45040;BME280;30778;53.574;7.770;2023-04-05T03:08:36;102516.75;;;-1.77;48.46
45040;BME280;30778;53.574;7.770;2023-04-05T03:11:06;102517.69;;;-1.75;48.39
45040;BME280;30778;53.574;7.770;2023-04-05T03:13:32;102516.19;;;-1.69;48.27
45040;BME280;30778;53.574;7.770;2023-04-05T03:16:01;102512.59;;;-1.74;48.09
45040;BME280;30778;53.574;7.770;2023-04-05T03:18:28;102522.59;;;-1.80;48.73
45040;BME280;30778;53.574;7.770;2023-04-05T03:21:03;102510.84;;;-1.75;48.39
45040;BME280;30778;53.574;7.770;2023-04-05T03:23:32;102505.13;;;-1.68;48.26
45040;BME280;30778;53.574;7.770;2023-04-05T03:25:58;102510.69;;;-1.80;48.38
45040;BME280;30778;53.574;7.770;2023-04-05T03:28:29;102514.81;;;-1.83;48.42
45040;BME280;30778;53.574;7.770;2023-04-05T03:31:00;102504.09;;;-1.95;48.51
45040;BME280;30778;53.574;7.770;2023-04-05T03:33:26;102503.34;;;-1.93;48.56
45040;BME280;30778;53.574;7.770;2023-04-05T03:35:51;102507.56;;;-1.93;48.79
45040;BME280;30778;53.574;7.770;2023-04-05T03:38:17;102509.16;;;-1.97;48.58
45040;BME280;30778;53.574;7.770;2023-04-05T03:41:05;102499.88;;;-1.93;48.82
45040;BME280;30778;53.574;7.770;2023-04-05T03:43:31;102496.75;;;-1.86;48.52
45040;BME280;30778;53.574;7.770;2023-04-05T03:45:57;102501.00;;;-1.87;48.42
45040;BME280;30778;53.574;7.770;2023-04-05T03:48:25;102500.09;;;-1.89;48.30
45040;BME280;30778;53.574;7.770;2023-04-05T03:50:51;102506.88;;;-1.89;48.59
45040;BME280;30778;53.574;7.770;2023-04-05T03:53:19;102508.56;;;-1.90;48.61
45040;BME280;30778;53.574;7.770;2023-04-05T03:55:48;102508.88;;;-1.82;48.62
45040;BME280;30778;53.574;7.770;2023-04-05T03:58:16;102508.13;;;-1.80;48.67
45040;BME280;30778;53.574;7.770;2023-04-05T04:00:42;102508.22;;;-1.76;48.77
45040;BME280;30778;53.574;7.770;2023-04-05T04:03:13;102505.94;;;-1.69;49.31
45040;BME280;30778;53.574;7.770;2023-04-05T04:05:43;102501.69;;;-1.68;49.21
45040;BME280;30778;53.574;7.770;2023-04-05T04:08:09;102503.56;;;-1.64;49.25
45040;BME280;30778;53.574;7.770;2023-04-05T04:10:35;102505.28;;;-1.63;49.58
45040;BME280;30778;53.574;7.770;2023-04-05T04:13:05;102498.53;;;-1.61;49.45
45040;BME280;30778;53.574;7.770;2023-04-05T04:15:32;102497.13;;;-1.53;49.51
45040;BME280;30778;53.574;7.770;2023-04-05T04:18:27;102499.56;;;-1.56;49.81
45040;BME280;30778;53.574;7.770;2023-04-05T04:21:06;102497.31;;;-1.47;49.48
45040;BME280;30778;53.574;7.770;2023-04-05T04:23:46;102495.50;;;-1.51;49.57
45040;BME280;30778;53.574;7.770;2023-04-05T04:26:40;102506.03;;;-1.43;49.36
45040;BME280;30778;53.574;7.770;2023-04-05T04:29:28;102504.84;;;-1.51;49.22
45040;BME280;30778;53.574;7.770;2023-04-05T04:32:18;102501.34;;;-1.55;49.24
45040;BME280;30778;53.574;7.770;2023-04-05T04:35:15;102507.78;;;-1.65;49.33
45040;BME280;30778;53.574;7.770;2023-04-05T04:37:58;102493.25;;;-1.66;49.18
45040;BME280;30778;53.574;7.770;2023-04-05T04:40:48;102492.03;;;-1.75;49.19
45040;BME280;30778;53.574;7.770;2023-04-05T04:43:28;102495.28;;;-1.57;49.26
45040;BME280;30778;53.574;7.770;2023-04-05T04:46:12;102497.69;;;-1.60;49.32
45040;BME280;30778;53.574;7.770;2023-04-05T04:48:58;102499.75;;;-1.74;49.35
45040;BME280;30778;53.574;7.770;2023-04-05T04:51:29;102500.59;;;-1.75;49.24
45040;BME280;30778;53.574;7.770;2023-04-05T04:53:55;102492.84;;;-1.76;49.17
45040;BME280;30778;53.574;7.770;2023-04-05T04:56:20;102495.22;;;-1.81;49.38
45040;BME280;30778;53.574;7.770;2023-04-05T04:58:48;102496.88;;;-1.83;49.63
45040;BME280;30778;53.574;7.770;2023-04-05T05:01:14;102499.66;;;-1.77;49.20
45040;BME280;30778;53.574;7.770;2023-04-05T05:03:41;102491.84;;;-1.80;49.27
45040;BME280;30778;53.574;7.770;2023-04-05T05:06:07;102494.31;;;-1.83;49.42
45040;BME280;30778;53.574;7.770;2023-04-05T05:08:34;102497.97;;;-1.76;49.60
45040;BME280;30778;53.574;7.770;2023-04-05T05:11:01;102499.31;;;-1.64;49.62
45040;BME280;30778;53.574;7.770;2023-04-05T05:13:30;102494.41;;;-1.57;49.30
45040;BME280;30778;53.574;7.770;2023-04-05T05:15:56;102493.50;;;-1.58;49.43
45040;BME280;30778;53.574;7.770;2023-04-05T05:18:24;102496.41;;;-1.49;49.30
45040;BME280;30778;53.574;7.770;2023-04-05T05:20:50;102493.09;;;-1.46;49.08
45040;BME280;30778;53.574;7.770;2023-04-05T05:23:16;102498.50;;;-1.39;49.34
45040;BME280;30778;53.574;7.770;2023-04-05T05:25:42;102496.38;;;-1.26;49.12
45040;BME280;30778;53.574;7.770;2023-04-05T05:28:07;102494.13;;;-1.17;49.09
45040;BME280;30778;53.574;7.770;2023-04-05T05:30:33;102495.06;;;-1.15;48.91
45040;BME280;30778;53.574;7.770;2023-04-05T05:32:58;102495.16;;;-1.12;48.94
45040;BME280;30778;53.574;7.770;2023-04-05T05:35:24;102500.38;;;-1.09;48.62
45040;BME280;30778;53.574;7.770;2023-04-05T05:37:50;102503.19;;;-1.03;48.59
45040;BME280;30778;53.574;7.770;2023-04-05T05:40:17;102499.06;;;-0.98;48.63
45040;BME280;30778;53.574;7.770;2023-04-05T05:42:42;102501.00;;;-0.92;48.70
45040;BME280;30778;53.574;7.770;2023-04-05T05:45:08;102496.00;;;-0.87;48.57
45040;BME280;30778;53.574;7.770;2023-04-05T05:47:34;102491.47;;;-0.43;48.39
45040;BME280;30778;53.574;7.770;2023-04-05T05:50:02;102493.34;;;0.50;47.04
45040;BME280;30778;53.574;7.770;2023-04-05T05:52:28;102492.91;;;1.31;46.01
45040;BME280;30778;53.574;7.770;2023-04-05T05:54:53;102486.66;;;1.93;44.23
45040;BME280;30778;53.574;7.770;2023-04-05T05:57:19;102483.06;;;2.71;43.91
45040;BME280;30778;53.574;7.770;2023-04-05T05:59:45;102480.47;;;3.75;41.86
45040;BME280;30778;53.574;7.770;2023-04-05T06:02:10;102470.97;;;5.30;38.94
45040;BME280;30778;53.574;7.770;2023-04-05T06:04:37;102478.63;;;7.38;35.97
45040;BME280;30778;53.574;7.770;2023-04-05T06:07:03;102469.91;;;9.27;32.40
45040;BME280;30778;53.574;7.770;2023-04-05T06:09:28;102469.13;;;10.71;29.49
45040;BME280;30778;53.574;7.770;2023-04-05T06:11:55;102464.97;;;12.06;27.19
45040;BME280;30778;53.574;7.770;2023-04-05T06:14:21;102463.34;;;12.41;25.74
45040;BME280;30778;53.574;7.770;2023-04-05T06:16:46;102458.44;;;12.26;25.74
45040;BME280;30778;53.574;7.770;2023-04-05T06:19:12;102462.44;;;12.02;26.59
45040;BME280;30778;53.574;7.770;2023-04-05T06:21:38;102460.88;;;11.93;26.33
45040;BME280;30778;53.574;7.770;2023-04-05T06:24:04;102467.19;;;11.84;25.37
45040;BME280;30778;53.574;7.770;2023-04-05T06:26:29;102464.84;;;11.67;26.00
45040;BME280;30778;53.574;7.770;2023-04-05T06:28:55;102460.81;;;12.38;25.58
45040;BME280;30778;53.574;7.770;2023-04-05T06:31:32;102455.56;;;13.46;23.81
45040;BME280;30778;53.574;7.770;2023-04-05T06:33:58;102452.88;;;13.15;23.92
45040;BME280;30778;53.574;7.770;2023-04-05T06:36:24;102447.81;;;13.41;23.75
45040;BME280;30778;53.574;7.770;2023-04-05T06:38:51;102452.34;;;13.35;23.79
45040;BME280;30778;53.574;7.770;2023-04-05T06:41:16;102447.97;;;13.35;24.15
45040;BME280;30778;53.574;7.770;2023-04-05T06:43:42;102452.84;;;13.49;23.37
45040;BME280;30778;53.574;7.770;2023-04-05T06:46:07;102459.13;;;13.76;23.01
45040;BME280;30778;53.574;7.770;2023-04-05T06:48:35;102458.47;;;13.99;22.34
45040;BME280;30778;53.574;7.770;2023-04-05T06:51:02;102458.56;;;14.54;21.73
45040;BME280;30778;53.574;7.770;2023-04-05T06:53:28;102463.75;;;14.57;21.11
45040;BME280;30778;53.574;7.770;2023-04-05T06:55:54;102458.72;;;15.04;21.11
45040;BME280;30778;53.574;7.770;2023-04-05T06:58:21;102456.44;;;15.18;21.06
45040;BME280;30778;53.574;7.770;2023-04-05T07:00:48;102446.94;;;16.35;20.07
45040;BME280;30778;53.574;7.770;2023-04-05T07:03:13;102451.91;;;16.65;20.49
45040;BME280;30778;53.574;7.770;2023-04-05T07:05:39;102449.16;;;16.00;19.26
45040;BME280;30778;53.574;7.770;2023-04-05T07:08:05;102444.47;;;16.09;19.43
45040;BME280;30778;53.574;7.770;2023-04-05T07:10:30;102446.78;;;16.16;19.31
45040;BME280;30778;53.574;7.770;2023-04-05T07:12:56;102450.25;;;15.46;20.33
45040;BME280;30778;53.574;7.770;2023-04-05T07:15:21;102443.47;;;15.39;19.63
45040;BME280;30778;53.574;7.770;2023-04-05T07:17:47;102446.56;;;15.00;18.50
45040;BME280;30778;53.574;7.770;2023-04-05T07:20:13;102445.75;;;14.71;20.30
45040;BME280;30778;53.574;7.770;2023-04-05T07:22:38;102442.22;;;14.72;19.36
45040;BME280;30778;53.574;7.770;2023-04-05T07:25:04;102449.13;;;14.48;19.73
45040;BME280;30778;53.574;7.770;2023-04-05T07:27:29;102451.94;;;14.97;19.44
45040;BME280;30778;53.574;7.770;2023-04-05T07:29:56;102443.41;;;15.89;18.59
45040;BME280;30778;53.574;7.770;2023-04-05T07:32:21;102444.13;;;16.40;18.17
45040;BME280;30778;53.574;7.770;2023-04-05T07:34:47;102444.78;;;17.30;17.29
45040;BME280;30778;53.574;7.770;2023-04-05T07:37:12;102441.88;;;17.76;16.46
45040;BME280;30778;53.574;7.770;2023-04-05T07:39:38;102437.75;;;18.81;15.76
45040;BME280;30778;53.574;7.770;2023-04-05T07:42:04;102435.41;;;17.83;16.01
45040;BME280;30778;53.574;7.770;2023-04-05T07:44:29;102439.09;;;17.98;16.36
45040;BME280;30778;53.574;7.770;2023-04-05T07:46:55;102435.16;;;17.29;16.18
45040;BME280;30778;53.574;7.770;2023-04-05T07:49:25;102438.50;;;17.12;15.95
45040;BME280;30778;53.574;7.770;2023-04-05T07:51:57;102436.94;;;15.98;16.01
45040;BME280;30778;53.574;7.770;2023-04-05T07:54:22;102446.63;;;15.97;17.15
45040;BME280;30778;53.574;7.770;2023-04-05T07:56:49;102436.25;;;16.82;16.29
45040;BME280;30778;53.574;7.770;2023-04-05T07:59:15;102432.03;;;16.99;16.18
45040;BME280;30778;53.574;7.770;2023-04-05T08:01:40;102436.00;;;17.30;15.95
45040;BME280;30778;53.574;7.770;2023-04-05T08:04:06;102438.66;;;17.09;15.78
45040;BME280;30778;53.574;7.770;2023-04-05T08:06:32;102435.63;;;16.98;15.43
45040;BME280;30778;53.574;7.770;2023-04-05T08:08:57;102432.03;;;16.99;14.47
45040;BME280;30778;53.574;7.770;2023-04-05T08:11:23;102433.38;;;16.67;14.91
45040;BME280;30778;53.574;7.770;2023-04-05T08:13:48;102443.47;;;16.11;14.57
45040;BME280;30778;53.574;7.770;2023-04-05T08:16:14;102438.13;;;16.13;14.48
45040;BME280;30778;53.574;7.770;2023-04-05T08:18:39;102443.75;;;16.27;15.58
45040;BME280;30778;53.574;7.770;2023-04-05T08:21:05;102442.63;;;16.11;15.50
45040;BME280;30778;53.574;7.770;2023-04-05T08:23:31;102427.28;;;16.42;15.81
45040;BME280;30778;53.574;7.770;2023-04-05T08:25:56;102431.19;;;16.98;15.54
45040;BME280;30778;53.574;7.770;2023-04-05T08:28:22;102431.44;;;16.48;14.49
45040;BME280;30778;53.574;7.770;2023-04-05T08:30:52;102430.88;;;16.62;15.01
45040;BME280;30778;53.574;7.770;2023-04-05T08:33:18;102427.38;;;17.24;14.97
45040;BME280;30778;53.574;7.770;2023-04-05T08:35:43;102428.56;;;17.38;14.05
45040;BME280;30778;53.574;7.770;2023-04-05T08:38:09;102425.41;;;16.89;14.92
45040;BME280;30778;53.574;7.770;2023-04-05T08:40:41;102415.75;;;16.67;14.67
45040;BME280;30778;53.574;7.770;2023-04-05T08:43:10;102425.94;;;15.87;14.47
45040;BME280;30778;53.574;7.770;2023-04-05T08:45:46;102438.03;;;14.65;15.57
45040;BME280;30778;53.574;7.770;2023-04-05T08:48:12;102430.81;;;14.72;16.08
45040;BME280;30778;53.574;7.770;2023-04-05T08:50:38;102427.19;;;15.01;15.86
45040;BME280;30778;53.574;7.770;2023-04-05T08:53:03;102429.44;;;14.02;16.33
45040;BME280;30778;53.574;7.770;2023-04-05T08:55:29;102423.25;;;14.33;15.60
45040;BME280;30778;53.574;7.770;2023-04-05T08:57:57;102418.25;;;13.96;15.58
45040;BME280;30778;53.574;7.770;2023-04-05T09:00:24;102425.47;;;13.25;16.03
45040;BME280;30778;53.574;7.770;2023-04-05T09:02:55;102424.72;;;11.67;17.56
45040;BME280;30778;53.574;7.770;2023-04-05T09:05:23;102422.66;;;11.84;17.51
45040;BME280;30778;53.574;7.770;2023-04-05T09:07:49;102426.28;;;11.76;18.58
45040;BME280;30778;53.574;7.770;2023-04-05T09:10:20;102417.56;;;11.30;18.51
45040;BME280;30778;53.574;7.770;2023-04-05T09:12:46;102421.09;;;11.28;18.96
45040;BME280;30778;53.574;7.770;2023-04-05T09:15:13;102420.16;;;10.82;18.56
45040;BME280;30778;53.574;7.770;2023-04-05T09:17:40;102422.75;;;10.80;19.15
45040;BME280;30778;53.574;7.770;2023-04-05T09:20:06;102422.22;;;11.13;19.86
45040;BME280;30778;53.574;7.770;2023-04-05T09:22:42;102422.97;;;12.11;17.96
45040;BME280;30778;53.574;7.770;2023-04-05T09:25:08;102421.00;;;12.21;17.60
45040;BME280;30778;53.574;7.770;2023-04-05T09:27:33;102414.19;;;12.12;19.06
45040;BME280;30778;53.574;7.770;2023-04-05T09:29:59;102421.84;;;12.21;18.54
45040;BME280;30778;53.574;7.770;2023-04-05T09:32:25;102414.16;;;11.70;18.35
45040;BME280;30778;53.574;7.770;2023-04-05T09:34:52;102410.22;;;11.02;18.73
45040;BME280;30778;53.574;7.770;2023-04-05T09:37:22;102418.47;;;11.73;18.60
45040;BME280;30778;53.574;7.770;2023-04-05T09:39:49;102413.91;;;12.24;17.62
45040;BME280;30778;53.574;7.770;2023-04-05T09:42:17;102419.22;;;11.81;18.31
45040;BME280;30778;53.574;7.770;2023-04-05T09:44:55;102413.00;;;12.27;17.65
45040;BME280;30778;53.574;7.770;2023-04-05T09:47:34;102417.03;;;12.01;17.68
45040;BME280;30778;53.574;7.770;2023-04-05T09:50:17;102407.31;;;11.18;18.65
45040;BME280;30778;53.574;7.770;2023-04-05T09:52:43;102414.66;;;11.44;18.84
45040;BME280;30778;53.574;7.770;2023-04-05T09:55:09;102418.25;;;11.40;18.29
45040;BME280;30778;53.574;7.770;2023-04-05T09:57:39;102406.75;;;11.94;18.14
45040;BME280;30778;53.574;7.770;2023-04-05T10:00:06;102409.13;;;12.42;18.48
45040;BME280;30778;53.574;7.770;2023-04-05T10:02:41;102403.28;;;11.92;17.89
45040;BME280;30778;53.574;7.770;2023-04-05T10:05:07;102405.50;;;12.10;17.74
45040;BME280;30778;53.574;7.770;2023-04-05T10:07:36;102400.41;;;12.41;18.80
45040;BME280;30778;53.574;7.770;2023-04-05T10:10:03;102395.94;;;12.09;17.91
45040;BME280;30778;53.574;7.770;2023-04-05T10:12:31;102401.59;;;10.97;18.09
45040;BME280;30778;53.574;7.770;2023-04-05T10:14:57;102393.69;;;11.47;18.77
45040;BME280;30778;53.574;7.770;2023-04-05T10:17:29;102386.13;;;11.75;18.53
45040;BME280;30778;53.574;7.770;2023-04-05T10:20:15;102385.91;;;11.42;18.15
45040;BME280;30778;53.574;7.770;2023-04-05T10:23:01;102389.69;;;10.76;18.56
45040;BME280;30778;53.574;7.770;2023-04-05T10:28:05;102388.50;;;12.28;17.04
45040;BME280;30778;53.574;7.770;2023-04-05T10:30:39;102378.63;;;12.38;17.22
45040;BME280;30778;53.574;7.770;2023-04-05T10:38:26;102369.63;;;11.70;17.12
45040;BME280;30778;53.574;7.770;2023-04-05T10:41:12;102383.78;;;10.63;19.37
45040;BME280;30778;53.574;7.770;2023-04-05T10:43:41;102370.25;;;10.37;19.29
45040;BME280;30778;53.574;7.770;2023-04-05T10:46:07;102372.06;;;10.35;18.21
45040;BME280;30778;53.574;7.770;2023-04-05T10:51:23;102365.56;;;11.12;17.47
45040;BME280;30778;53.574;7.770;2023-04-05T10:53:48;102360.47;;;11.93;17.47
45040;BME280;30778;53.574;7.770;2023-04-05T10:56:15;102349.16;;;12.29;17.95
45040;BME280;30778;53.574;7.770;2023-04-05T10:58:42;102355.97;;;12.37;17.58
45040;BME280;30778;53.574;7.770;2023-04-05T11:01:09;102352.06;;;11.75;17.18
45040;BME280;30778;53.574;7.770;2023-04-05T11:06:20;102349.72;;;12.42;16.67
45040;BME280;30778;53.574;7.770;2023-04-05T11:08:47;102349.13;;;11.92;17.51
45040;BME280;30778;53.574;7.770;2023-04-05T11:11:17;102344.88;;;11.43;18.38
45040;BME280;30778;53.574;7.770;2023-04-05T11:13:54;102338.97;;;11.75;16.94
45040;BME280;30778;53.574;7.770;2023-04-05T11:16:21;102344.88;;;11.86;17.67
45040;BME280;30778;53.574;7.770;2023-04-05T11:18:48;102339.84;;;12.52;16.38
45040;BME280;30778;53.574;7.770;2023-04-05T11:21:24;102334.59;;;12.52;16.93
45040;BME280;30778;53.574;7.770;2023-04-05T11:24:03;102330.69;;;13.03;16.00
45040;BME280;30778;53.574;7.770;2023-04-05T11:26:32;102333.44;;;12.62;16.89
45040;BME280;30778;53.574;7.770;2023-04-05T11:28:58;102337.34;;;12.10;16.22
45040;BME280;30778;53.574;7.770;2023-04-05T11:31:23;102328.75;;;11.64;18.72
45040;BME280;30778;53.574;7.770;2023-04-05T11:34:04;102326.41;;;11.93;17.60
45040;BME280;30778;53.574;7.770;2023-04-05T11:36:43;102320.53;;;12.56;17.62
45040;BME280;30778;53.574;7.770;2023-04-05T11:44:18;102325.53;;;11.92;17.77
45040;BME280;30778;53.574;7.770;2023-04-05T11:46:46;102310.78;;;12.25;17.58
45040;BME280;30778;53.574;7.770;2023-04-05T11:49:12;102310.69;;;12.28;17.56
45040;BME280;30778;53.574;7.770;2023-04-05T11:51:42;102306.13;;;12.73;18.24
45040;BME280;30778;53.574;7.770;2023-04-05T11:54:08;102311.59;;;11.92;17.20
45040;BME280;30778;53.574;7.770;2023-04-05T11:56:33;102313.34;;;11.05;17.98
45040;BME280;30778;53.574;7.770;2023-04-05T11:58:59;102319.84;;;10.84;17.70
45040;BME280;30778;53.574;7.770;2023-04-05T12:01:25;102304.03;;;11.36;16.99
45040;BME280;30778;53.574;7.770;2023-04-05T12:03:55;102298.97;;;12.09;18.34
45040;BME280;30778;53.574;7.770;2023-04-05T12:06:22;102307.44;;;12.20;16.73
45040;BME280;30778;53.574;7.770;2023-04-05T12:08:48;102306.47;;;12.23;17.31
45040;BME280;30778;53.574;7.770;2023-04-05T12:11:22;102290.63;;;11.92;17.98
45040;BME280;30778;53.574;7.770;2023-04-05T12:13:53;102295.66;;;11.60;18.05
45040;BME280;30778;53.574;7.770;2023-04-05T12:16:18;102307.88;;;11.18;18.63
45040;BME280;30778;53.574;7.770;2023-04-05T12:18:52;102297.59;;;11.51;18.53
45040;BME280;30778;53.574;7.770;2023-04-05T12:21:18;102289.38;;;11.27;18.02
45040;BME280;30778;53.574;7.770;2023-04-05T12:23:44;102303.28;;;10.81;19.00
45040;BME280;30778;53.574;7.770;2023-04-05T12:26:09;102290.91;;;10.94;18.45
45040;BME280;30778;53.574;7.770;2023-04-05T12:28:55;102289.00;;;11.44;18.05
45040;BME280;30778;53.574;7.770;2023-04-05T12:33:59;102273.63;;;12.44;17.99
45040;BME280;30778;53.574;7.770;2023-04-05T12:36:26;102273.63;;;12.44;17.74
45040;BME280;30778;53.574;7.770;2023-04-05T12:38:53;102276.06;;;11.80;18.43
45040;BME280;30778;53.574;7.770;2023-04-05T12:41:26;102277.56;;;10.59;19.39
45040;BME280;30778;53.574;7.770;2023-04-05T12:43:52;102267.47;;;10.88;18.59
45040;BME280;30778;53.574;7.770;2023-04-05T12:46:37;102272.25;;;11.53;18.50
45040;BME280;30778;53.574;7.770;2023-04-05T12:49:03;102262.50;;;11.59;18.05
45040;BME280;30778;53.574;7.770;2023-04-05T12:51:30;102258.34;;;12.27;18.26
45040;BME280;30778;53.574;7.770;2023-04-05T12:53:56;102250.81;;;13.11;17.50
45040;BME280;30778;53.574;7.770;2023-04-05T12:56:21;102249.91;;;12.83;18.08
45040;BME280;30778;53.574;7.770;2023-04-05T12:58:48;102245.72;;;13.37;17.62
45040;BME280;30778;53.574;7.770;2023-04-05T13:01:16;102247.41;;;13.09;17.82
45040;BME280;30778;53.574;7.770;2023-04-05T13:03:42;102241.47;;;13.03;17.57
45040;BME280;30778;53.574;7.770;2023-04-05T13:06:09;102232.06;;;12.61;18.52
45040;BME280;30778;53.574;7.770;2023-04-05T13:08:34;102233.72;;;12.98;17.91
45040;BME280;30778;53.574;7.770;2023-04-05T13:11:00;102232.50;;;12.79;17.32
45040;BME280;30778;53.574;7.770;2023-04-05T13:13:25;102233.56;;;11.64;19.52
45040;BME280;30778;53.574;7.770;2023-04-05T13:15:51;102226.19;;;11.84;18.30
45040;BME280;30778;53.574;7.770;2023-04-05T13:18:16;102223.94;;;12.05;17.76
45040;BME280;30778;53.574;7.770;2023-04-05T13:20:42;102220.13;;;13.43;17.91
45040;BME280;30778;53.574;7.770;2023-04-05T13:23:08;102216.66;;;14.51;16.27
45040;BME280;30778;53.574;7.770;2023-04-05T13:25:40;102212.09;;;14.29;16.68